Time;durP1;ratioP1;P1;durP2;ratioP2;P2;SDS_P1;SDS_P2;PMS_P1;PMS_P2;Temp;Humidity;BMP_temperature;BMP_pressure;BME280_temperature;BME280_humidity;BME280_pressure;Samples;Min_cycle;Max_cycle;Signal;HPM_P1;HPM_P2
2022/01/09 00:01:14;;;;;;;13.07;4.78;;;4.20;99.90;;;;;;5113298;28;20034;-76
2022/01/09 00:03:39;;;;;;;9.40;4.53;;;4.20;99.90;;;;;;5123601;28;20503;-74
2022/01/09 00:06:05;;;;;;;13.70;4.82;;;4.20;99.90;;;;;;5126752;28;20026;-73
2022/01/09 00:08:31;;;;;;;11.80;4.55;;;4.20;99.90;;;;;;5117137;28;20659;-78
2022/01/09 00:10:56;;;;;;;9.00;3.95;;;4.20;99.90;;;;;;5112748;28;20024;-77
2022/01/09 00:13:22;;;;;;;12.55;4.47;;;4.20;99.90;;;;;;5112561;28;20091;-75
2022/01/09 00:15:48;;;;;;;14.82;4.47;;;4.30;99.90;;;;;;5112330;28;20072;-74
2022/01/09 00:18:13;;;;;;;10.65;4.40;;;4.40;99.90;;;;;;5111946;28;20380;-77
2022/01/09 00:20:39;;;;;;;11.95;4.30;;;4.30;99.90;;;;;;5112472;28;20411;-76
2022/01/09 00:23:05;;;;;;;13.60;5.60;;;4.40;99.90;;;;;;5112280;28;20107;-76
2022/01/09 00:25:30;;;;;;;11.80;5.03;;;4.40;99.90;;;;;;5112116;28;20035;-75
2022/01/09 00:27:56;;;;;;;13.18;4.60;;;4.40;99.90;;;;;;5110896;28;20027;-78
2022/01/09 00:30:23;;;;;;;16.05;4.90;;;4.40;99.90;;;;;;5112506;28;20123;-75
2022/01/09 00:32:52;;;;;;;14.82;5.18;;;4.40;99.90;;;;;;5112485;28;20015;-75
2022/01/09 00:35:18;;;;;;;11.70;4.88;;;4.40;99.90;;;;;;5112535;28;20023;-75
2022/01/09 00:37:44;;;;;;;9.80;4.57;;;4.40;99.90;;;;;;5113255;28;20023;-76
2022/01/09 00:40:11;;;;;;;8.15;4.43;;;4.30;99.90;;;;;;5114747;28;20437;-75
2022/01/09 00:42:37;;;;;;;15.82;4.88;;;4.30;99.90;;;;;;5115954;28;20070;-77
2022/01/09 00:45:05;;;;;;;9.38;4.05;;;4.30;99.90;;;;;;5113397;28;20031;-76
2022/01/09 00:47:30;;;;;;;10.20;4.65;;;4.40;99.90;;;;;;5112035;28;20024;-76
2022/01/09 00:49:56;;;;;;;8.65;4.25;;;4.30;99.90;;;;;;5110620;28;20032;-75
2022/01/09 00:52:22;;;;;;;13.98;4.47;;;4.30;99.90;;;;;;5112007;28;20090;-75
2022/01/09 00:54:47;;;;;;;13.32;4.88;;;4.30;99.90;;;;;;5112270;28;20028;-76
2022/01/09 00:57:13;;;;;;;10.05;4.55;;;4.30;99.90;;;;;;5112403;28;20062;-75
2022/01/09 00:59:38;;;;;;;14.30;4.72;;;4.40;99.90;;;;;;5111825;28;20535;-75
2022/01/09 01:02:04;;;;;;;12.63;4.05;;;4.30;99.90;;;;;;5112603;28;20379;-77
2022/01/09 01:04:30;;;;;;;9.20;3.85;;;4.30;99.90;;;;;;5113529;28;20027;-76
2022/01/09 01:06:56;;;;;;;14.57;4.43;;;4.30;99.90;;;;;;5113777;28;20275;-76
2022/01/09 01:09:23;;;;;;;10.18;4.40;;;4.30;99.90;;;;;;5114197;28;20035;-76
2022/01/09 01:11:49;;;;;;;10.57;3.92;;;4.30;99.90;;;;;;5115638;28;20387;-76
2022/01/09 01:14:14;;;;;;;10.75;4.05;;;4.30;99.90;;;;;;5114094;28;20015;-76
2022/01/09 01:16:40;;;;;;;11.30;4.05;;;4.30;99.90;;;;;;5113571;28;20023;-76
2022/01/09 01:19:06;;;;;;;10.27;4.30;;;4.40;99.90;;;;;;5119880;28;20439;-77
2022/01/09 01:21:33;;;;;;;8.60;3.67;;;4.30;99.90;;;;;;5118595;28;20067;-77
2022/01/09 01:23:59;;;;;;;11.13;4.13;;;4.30;99.90;;;;;;5120592;28;20016;-77
2022/01/09 01:26:24;;;;;;;8.68;3.47;;;4.30;99.90;;;;;;5118248;28;20037;-77
2022/01/09 01:28:50;;;;;;;8.88;4.05;;;4.30;99.90;;;;;;5118724;28;20031;-77
2022/01/09 01:31:16;;;;;;;9.77;4.25;;;4.30;99.90;;;;;;5115379;28;20473;-77
2022/01/09 01:33:41;;;;;;;11.98;4.30;;;4.30;99.90;;;;;;5116472;28;20031;-76
2022/01/09 01:36:07;;;;;;;11.55;4.05;;;4.30;99.90;;;;;;5116466;28;20043;-76
2022/01/09 01:38:33;;;;;;;11.98;4.53;;;4.30;99.90;;;;;;5117113;28;20028;-76
2022/01/09 01:40:58;;;;;;;13.27;4.80;;;4.30;99.90;;;;;;5117084;28;20030;-77
2022/01/09 01:43:25;;;;;;;13.75;4.30;;;4.30;99.90;;;;;;5115334;28;20547;-76
2022/01/09 01:45:51;;;;;;;9.93;4.22;;;4.30;99.90;;;;;;5117290;28;20039;-76
2022/01/09 01:48:16;;;;;;;16.35;4.88;;;4.20;99.90;;;;;;5119607;28;20058;-76
2022/01/09 01:50:42;;;;;;;12.30;4.32;;;4.20;99.90;;;;;;5116588;28;20432;-76
2022/01/09 01:53:12;;;;;;;16.63;4.60;;;4.20;99.90;;;;;;5116637;28;20043;-76
2022/01/09 01:55:40;;;;;;;14.35;5.50;;;4.20;99.90;;;;;;5114567;28;20468;-77
2022/01/09 01:58:08;;;;;;;9.10;4.68;;;4.10;99.90;;;;;;5115894;28;20091;-77
2022/01/09 02:00:34;;;;;;;11.57;4.45;;;4.10;99.90;;;;;;5124965;28;20023;-78
2022/01/09 02:03:00;;;;;;;9.07;4.70;;;4.10;99.90;;;;;;5118330;28;20357;-76
2022/01/09 02:05:26;;;;;;;9.85;4.30;;;4.10;99.90;;;;;;5115994;28;20108;-77
2022/01/09 02:07:52;;;;;;;10.50;4.40;;;4.10;99.90;;;;;;5116810;28;20028;-75
2022/01/09 02:10:18;;;;;;;10.60;4.47;;;4.10;99.90;;;;;;5116316;28;20031;-76
2022/01/09 02:12:44;;;;;;;13.82;5.20;;;4.00;99.90;;;;;;5124098;28;20072;-80
2022/01/09 02:15:27;;;;;;;9.52;4.65;;;4.00;99.90;;;;;;5127823;28;20077;-80
2022/01/09 02:17:53;;;;;;;16.65;5.55;;;4.00;99.90;;;;;;5129931;28;20020;-79
2022/01/09 02:20:19;;;;;;;10.80;4.47;;;4.00;99.90;;;;;;5115408;28;20031;-80
2022/01/09 02:22:45;;;;;;;13.35;5.03;;;4.00;99.90;;;;;;5107675;28;20159;-80
2022/01/09 02:25:11;;;;;;;13.07;5.07;;;4.00;99.90;;;;;;5108656;28;20028;-79
2022/01/09 02:27:37;;;;;;;13.90;6.22;;;4.00;99.90;;;;;;5108102;28;20024;-79
2022/01/09 02:30:05;;;;;;;10.48;5.05;;;3.90;99.90;;;;;;5109042;28;20024;-78
2022/01/09 02:32:31;;;;;;;14.00;5.18;;;4.00;99.90;;;;;;5113090;28;20028;-77
2022/01/09 02:34:56;;;;;;;11.35;4.97;;;3.90;99.90;;;;;;5113307;28;20024;-78
2022/01/09 02:37:22;;;;;;;12.90;6.05;;;3.90;99.90;;;;;;5114875;28;20028;-78
2022/01/09 02:39:49;;;;;;;15.90;5.72;;;3.90;99.90;;;;;;5112530;28;20028;-78
2022/01/09 02:42:25;;;;;;;10.43;5.28;;;3.80;99.90;;;;;;5112524;28;20020;-79
2022/01/09 02:44:51;;;;;;;12.85;5.20;;;3.80;99.90;;;;;;5102792;28;20028;-79
2022/01/09 02:47:18;;;;;;;15.65;4.93;;;3.80;99.90;;;;;;5100611;28;20027;-81
2022/01/09 02:49:49;;;;;;;11.45;5.07;;;3.80;99.90;;;;;;5101486;28;20052;-80
2022/01/09 02:55:12;;;;;;;13.50;5.72;;;3.80;99.90;;;;;;5105547;28;20089;-80
2022/01/09 02:57:51;;;;;;;11.52;5.70;;;3.80;99.90;;;;;;5099534;28;20032;-80
2022/01/09 03:00:22;;;;;;;11.88;5.22;;;3.70;99.90;;;;;;5101024;28;20520;-81
2022/01/09 03:02:48;;;;;;;16.27;5.90;;;3.70;99.90;;;;;;5099810;28;20391;-79
2022/01/09 03:05:14;;;;;;;14.57;5.47;;;3.70;99.90;;;;;;5100973;28;20051;-81
2022/01/09 03:07:41;;;;;;;12.10;6.05;;;3.70;99.90;;;;;;5101187;28;20029;-80
2022/01/09 03:10:08;;;;;;;9.40;5.47;;;3.60;99.90;;;;;;5101912;28;20404;-78
2022/01/09 03:12:34;;;;;;;13.82;6.35;;;3.70;99.90;;;;;;5102939;28;20418;-80
2022/01/09 03:15:00;;;;;;;13.35;6.22;;;3.70;99.90;;;;;;5103327;28;20024;-80
2022/01/09 03:17:26;;;;;;;17.88;6.43;;;3.70;99.90;;;;;;5101126;28;20024;-80
2022/01/09 03:19:52;;;;;;;20.75;5.95;;;3.70;99.90;;;;;;5101287;28;20020;-79
2022/01/09 03:22:17;;;;;;;13.82;5.97;;;3.70;99.90;;;;;;5106141;28;20050;-78
2022/01/09 03:24:43;;;;;;;16.95;6.38;;;3.70;99.90;;;;;;5110871;28;20100;-80
2022/01/09 03:27:09;;;;;;;13.25;6.07;;;3.70;99.90;;;;;;5107760;28;20032;-83
2022/01/09 03:29:35;;;;;;;17.00;5.95;;;3.70;99.90;;;;;;5103430;28;20104;-80
2022/01/09 03:32:01;;;;;;;14.68;5.82;;;3.70;99.90;;;;;;5105785;28;20032;-80
2022/01/09 03:34:27;;;;;;;15.68;6.28;;;3.70;99.90;;;;;;5108260;28;20024;-78
2022/01/09 03:36:53;;;;;;;17.23;6.50;;;3.70;99.90;;;;;;5116699;28;20062;-80
2022/01/09 03:39:18;;;;;;;12.27;6.25;;;3.70;99.90;;;;;;5112150;28;20489;-80
2022/01/09 03:41:44;;;;;;;17.83;6.15;;;3.70;99.90;;;;;;5112374;28;20032;-78
2022/01/09 03:44:09;;;;;;;15.38;6.60;;;3.70;99.90;;;;;;5105673;28;20020;-79
2022/01/09 03:46:35;;;;;;;12.27;6.05;;;3.70;99.90;;;;;;5113122;28;20028;-78
2022/01/09 03:49:00;;;;;;;13.75;5.85;;;3.70;99.90;;;;;;5117307;28;20052;-79
2022/01/09 03:51:32;;;;;;;16.30;6.60;;;3.70;99.90;;;;;;5113703;28;20032;-80
2022/01/09 03:53:58;;;;;;;14.18;6.53;;;3.70;99.90;;;;;;5108573;28;20024;-77
2022/01/09 03:56:24;;;;;;;12.43;5.88;;;3.70;99.90;;;;;;5107082;28;20032;-78
2022/01/09 03:58:50;;;;;;;14.48;6.30;;;3.70;99.90;;;;;;5104577;28;20323;-80
2022/01/09 04:01:15;;;;;;;11.77;6.13;;;3.70;99.90;;;;;;5100913;28;20039;-80
2022/01/09 04:03:41;;;;;;;13.07;6.20;;;3.70;99.90;;;;;;5102210;28;20516;-80
2022/01/09 04:06:06;;;;;;;14.60;5.70;;;3.70;99.90;;;;;;5100436;28;20489;-80
2022/01/09 04:08:34;;;;;;;16.25;5.97;;;3.80;99.90;;;;;;5102194;28;20028;-78
2022/01/09 04:11:02;;;;;;;13.93;6.20;;;3.70;99.90;;;;;;5108464;28;20020;-79
2022/01/09 04:13:28;;;;;;;13.02;5.93;;;3.70;99.90;;;;;;5100907;28;20020;-81
2022/01/09 04:15:53;;;;;;;16.17;6.47;;;3.80;99.90;;;;;;5103467;28;20024;-80
2022/01/09 04:18:22;;;;;;;12.88;5.88;;;3.80;99.90;;;;;;5105036;28;20020;-81
2022/01/09 04:20:49;;;;;;;12.70;6.32;;;3.80;99.90;;;;;;5104258;28;20025;-80
2022/01/09 04:23:16;;;;;;;11.45;5.70;;;3.80;99.90;;;;;;5114511;28;20096;-77
2022/01/09 04:25:42;;;;;;;15.18;6.07;;;3.80;99.90;;;;;;5117004;28;20032;-78
2022/01/09 04:28:10;;;;;;;13.93;5.65;;;3.80;99.90;;;;;;5116391;28;20103;-77
2022/01/09 04:30:35;;;;;;;15.98;6.45;;;3.80;99.90;;;;;;5118195;28;20020;-76
2022/01/09 04:33:01;;;;;;;13.35;5.95;;;3.80;99.90;;;;;;5117757;28;20035;-78
2022/01/09 04:35:26;;;;;;;13.90;5.97;;;3.70;99.90;;;;;;5117760;28;20076;-76
2022/01/09 04:37:53;;;;;;;15.25;5.60;;;3.80;99.90;;;;;;5116328;28;20008;-78
2022/01/09 04:40:20;;;;;;;12.43;5.75;;;3.80;99.90;;;;;;5117016;28;20047;-77
2022/01/09 04:42:50;;;;;;;13.52;5.55;;;3.80;99.90;;;;;;5117943;28;20024;-77
2022/01/09 04:45:17;;;;;;;10.80;5.75;;;3.80;99.90;;;;;;5104524;28;20476;-75
2022/01/09 04:47:47;;;;;;;12.30;5.78;;;3.80;99.90;;;;;;5102882;28;20028;-75
2022/01/09 04:50:21;;;;;;;12.27;5.80;;;3.70;99.90;;;;;;5093083;28;20020;-75
2022/01/09 04:52:47;;;;;;;12.80;5.75;;;3.80;99.90;;;;;;5109504;28;20051;-76
2022/01/09 04:55:13;;;;;;;16.70;5.72;;;3.70;99.90;;;;;;5101528;28;20110;-75
2022/01/09 04:57:39;;;;;;;16.25;5.68;;;3.70;99.90;;;;;;5090839;28;20055;-75
2022/01/09 05:00:06;;;;;;;15.55;5.57;;;3.70;99.90;;;;;;5092447;28;20078;-75
2022/01/09 05:02:32;;;;;;;18.20;6.57;;;3.70;99.90;;;;;;5093256;28;20031;-76
2022/01/09 05:04:58;;;;;;;15.02;5.75;;;3.70;99.90;;;;;;5090965;28;20123;-75
2022/01/09 05:07:23;;;;;;;13.57;5.30;;;3.70;99.90;;;;;;5092303;28;20107;-76
2022/01/09 05:09:49;;;;;;;11.68;5.65;;;3.70;99.90;;;;;;5093686;28;20525;-75
2022/01/09 05:12:15;;;;;;;11.88;5.82;;;3.70;99.90;;;;;;5092414;28;20500;-75
2022/01/09 05:14:40;;;;;;;11.98;5.80;;;3.60;99.90;;;;;;5092452;28;20023;-75
2022/01/09 05:17:06;;;;;;;16.10;6.05;;;3.60;99.90;;;;;;5091548;28;20027;-75
2022/01/09 05:19:34;;;;;;;11.18;5.25;;;3.60;99.90;;;;;;5096113;28;20063;-76
2022/01/09 05:22:00;;;;;;;14.95;6.32;;;3.60;99.90;;;;;;5098694;28;20397;-75
2022/01/09 05:24:26;;;;;;;9.70;6.07;;;3.60;99.90;;;;;;5098502;28;20020;-75
2022/01/09 05:26:51;;;;;;;11.07;5.80;;;3.60;99.90;;;;;;5090380;28;20024;-75
2022/01/09 05:29:17;;;;;;;15.10;6.47;;;3.60;99.90;;;;;;5092188;28;20028;-75
2022/01/09 05:31:44;;;;;;;12.55;5.97;;;3.60;99.90;;;;;;5090569;28;20020;-75
2022/01/09 05:34:10;;;;;;;11.30;6.10;;;3.50;99.90;;;;;;5091979;28;20016;-77
2022/01/09 05:36:35;;;;;;;10.32;5.95;;;3.60;99.90;;;;;;5091197;28;20023;-74
2022/01/09 05:39:02;;;;;;;14.85;6.75;;;3.50;99.90;;;;;;5090519;28;20492;-75
2022/01/09 05:41:28;;;;;;;17.23;7.13;;;3.50;99.90;;;;;;5092188;28;20020;-75
2022/01/09 05:43:53;;;;;;;14.25;6.30;;;3.50;99.90;;;;;;5092448;28;20039;-75
2022/01/09 05:46:19;;;;;;;15.55;6.97;;;3.50;99.90;;;;;;5090387;28;20024;-75
2022/01/09 05:48:45;;;;;;;14.10;6.88;;;3.50;99.90;;;;;;5092039;28;20397;-75
2022/01/09 05:51:10;;;;;;;11.10;6.80;;;3.50;99.90;;;;;;5091784;28;20024;-74
2022/01/09 05:53:36;;;;;;;12.80;6.78;;;3.50;99.90;;;;;;5091972;28;20540;-75
2022/01/09 05:56:01;;;;;;;12.88;6.53;;;3.50;99.90;;;;;;5091432;28;20469;-75
2022/01/09 05:58:27;;;;;;;15.63;6.93;;;3.50;99.90;;;;;;5092028;28;20024;-76
2022/01/09 06:00:52;;;;;;;15.23;7.68;;;3.40;99.90;;;;;;5092291;28;20036;-75
2022/01/09 06:03:18;;;;;;;17.63;8.05;;;3.40;99.90;;;;;;5091937;28;20031;-76
2022/01/09 06:05:44;;;;;;;14.13;8.10;;;3.30;99.90;;;;;;5094687;28;20024;-76
2022/01/09 06:08:09;;;;;;;12.10;7.55;;;3.30;99.90;;;;;;5094327;28;20115;-75
2022/01/09 06:10:35;;;;;;;19.40;7.60;;;3.40;99.90;;;;;;5095729;28;20024;-75
2022/01/09 06:13:00;;;;;;;15.50;8.40;;;3.40;99.90;;;;;;5095367;28;20028;-75
2022/01/09 06:15:26;;;;;;;14.88;8.32;;;3.40;99.90;;;;;;5094935;28;20020;-77
2022/01/09 06:17:51;;;;;;;16.35;9.43;;;3.40;99.90;;;;;;5096112;28;20070;-76
2022/01/09 06:20:17;;;;;;;18.73;9.40;;;3.30;99.90;;;;;;5095577;28;20028;-76
2022/01/09 06:22:44;;;;;;;14.77;9.73;;;3.30;99.90;;;;;;5096248;28;20473;-75
2022/01/09 06:25:10;;;;;;;18.17;9.68;;;3.20;99.90;;;;;;5096253;28;20023;-74
2022/01/09 06:27:36;;;;;;;22.77;11.20;;;3.20;99.90;;;;;;5095172;28;20016;-76
2022/01/09 06:30:04;;;;;;;19.13;9.85;;;3.20;99.90;;;;;;5096578;28;20046;-76
2022/01/09 06:32:31;;;;;;;14.75;9.63;;;3.30;99.90;;;;;;5094901;28;20047;-75
2022/01/09 06:34:56;;;;;;;16.92;9.27;;;3.30;99.90;;;;;;5094901;28;20020;-75
2022/01/09 06:37:22;;;;;;;16.50;10.02;;;3.30;99.90;;;;;;5094585;28;20487;-74
2022/01/09 06:39:48;;;;;;;15.82;9.20;;;3.20;99.90;;;;;;5102734;28;20024;-76
2022/01/09 06:42:13;;;;;;;19.77;10.43;;;3.20;99.90;;;;;;5102858;28;20423;-76
2022/01/09 06:44:39;;;;;;;17.02;10.38;;;3.20;99.90;;;;;;5094684;28;20183;-75
2022/01/09 06:47:05;;;;;;;18.50;10.50;;;3.20;99.90;;;;;;5092821;28;20501;-76
2022/01/09 06:49:31;;;;;;;15.35;9.77;;;3.10;99.90;;;;;;5094498;28;20065;-75
2022/01/09 06:51:56;;;;;;;16.52;10.15;;;3.10;99.90;;;;;;5094986;28;20067;-75
2022/01/09 06:54:22;;;;;;;15.82;10.15;;;3.10;99.90;;;;;;5095036;28;20369;-76
2022/01/09 06:56:48;;;;;;;15.43;10.07;;;3.20;99.90;;;;;;5095899;28;20512;-76
2022/01/09 06:59:13;;;;;;;24.67;14.13;;;3.20;99.90;;;;;;5095833;28;20024;-76
2022/01/09 07:01:39;;;;;;;17.90;10.75;;;3.20;99.90;;;;;;5095083;28;20047;-76
2022/01/09 07:04:05;;;;;;;16.77;10.18;;;3.20;99.90;;;;;;5094681;28;20236;-75
2022/01/09 07:06:30;;;;;;;21.92;10.63;;;3.20;99.90;;;;;;5094108;28;20035;-75
2022/01/09 07:08:56;;;;;;;16.23;11.32;;;3.20;99.90;;;;;;5095009;28;20031;-75
2022/01/09 07:11:22;;;;;;;13.48;9.80;;;3.20;99.90;;;;;;5093090;28;20059;-75
2022/01/09 07:13:47;;;;;;;17.77;10.57;;;3.20;99.90;;;;;;5094967;28;20419;-76
2022/01/09 07:16:13;;;;;;;16.40;9.82;;;3.20;99.90;;;;;;5094847;28;20016;-75
2022/01/09 07:18:38;;;;;;;19.20;10.77;;;3.10;99.90;;;;;;5095897;28;20024;-75
2022/01/09 07:21:04;;;;;;;15.70;10.07;;;3.20;99.90;;;;;;5099327;28;20445;-75
2022/01/09 07:23:32;;;;;;;16.25;10.18;;;3.20;99.90;;;;;;5099831;28;20032;-76
2022/01/09 07:25:58;;;;;;;16.88;10.13;;;3.20;99.90;;;;;;5095435;28;20028;-76
2022/01/09 07:28:23;;;;;;;17.90;10.50;;;3.20;99.90;;;;;;5094885;28;20508;-73
2022/01/09 07:30:49;;;;;;;17.70;10.38;;;3.30;99.90;;;;;;5095911;28;20020;-75
2022/01/09 07:33:14;;;;;;;18.23;10.52;;;3.20;99.90;;;;;;5100875;28;20027;-72
2022/01/09 07:35:40;;;;;;;15.05;10.88;;;3.20;99.90;;;;;;5102942;28;20032;-73
2022/01/09 07:38:05;;;;;;;18.30;10.93;;;3.10;99.90;;;;;;5103941;28;20039;-76
2022/01/09 07:40:31;;;;;;;20.05;11.65;;;3.20;99.90;;;;;;5094522;28;20060;-77
2022/01/09 07:42:57;;;;;;;17.35;11.02;;;3.30;99.90;;;;;;5093915;28;20036;-76
2022/01/09 07:45:26;;;;;;;19.60;11.57;;;3.30;99.90;;;;;;5093810;28;20034;-76
2022/01/09 07:47:52;;;;;;;17.95;11.60;;;3.30;99.90;;;;;;5093510;28;20449;-76
2022/01/09 07:50:18;;;;;;;17.80;11.02;;;3.30;99.90;;;;;;5094743;28;20445;-75
2022/01/09 07:52:43;;;;;;;18.13;12.05;;;3.30;99.90;;;;;;5093552;28;20020;-75
2022/01/09 07:55:10;;;;;;;18.55;11.50;;;3.40;99.90;;;;;;5093351;28;20028;-74
2022/01/09 07:57:36;;;;;;;20.45;11.63;;;3.40;99.90;;;;;;5092840;28;20107;-75
2022/01/09 08:00:05;;;;;;;19.67;13.02;;;3.40;99.90;;;;;;5093209;28;20027;-74
2022/01/09 08:02:31;;;;;;;23.65;13.55;;;3.40;99.90;;;;;;5093290;28;20153;-74
2022/01/09 08:04:56;;;;;;;22.08;12.27;;;3.40;99.90;;;;;;5093285;28;20055;-74
2022/01/09 08:07:22;;;;;;;20.23;12.25;;;3.40;99.90;;;;;;5093386;28;20122;-74
2022/01/09 08:09:48;;;;;;;17.50;12.10;;;3.40;99.90;;;;;;5092775;28;20036;-75
2022/01/09 08:12:16;;;;;;;18.08;11.57;;;3.40;99.90;;;;;;5091443;28;20024;-74
2022/01/09 08:14:44;;;;;;;19.92;12.77;;;3.40;99.90;;;;;;5091579;28;20063;-74
2022/01/09 08:17:11;;;;;;;18.45;12.15;;;3.40;99.90;;;;;;5090747;28;20024;-73
2022/01/09 08:19:36;;;;;;;21.40;12.23;;;3.40;99.90;;;;;;5091360;28;20024;-74
2022/01/09 08:22:04;;;;;;;24.60;15.05;;;3.40;99.90;;;;;;5092661;28;20028;-75
2022/01/09 08:24:29;;;;;;;17.77;12.23;;;3.50;99.90;;;;;;5092855;28;20024;-74
2022/01/09 08:26:55;;;;;;;15.55;11.75;;;3.50;99.90;;;;;;5091875;28;20035;-75
2022/01/09 08:29:20;;;;;;;23.58;12.75;;;3.50;99.90;;;;;;5092541;28;20081;-75
2022/01/09 08:31:46;;;;;;;18.92;12.15;;;3.50;99.90;;;;;;5092634;28;20039;-76
2022/01/09 08:34:12;;;;;;;25.17;11.95;;;3.60;99.90;;;;;;5092334;28;20039;-73
2022/01/09 08:36:38;;;;;;;18.58;12.05;;;3.50;99.90;;;;;;5092359;28;20031;-73
2022/01/09 08:39:05;;;;;;;17.40;12.13;;;3.50;99.90;;;;;;5091953;28;20433;-75
2022/01/09 08:41:31;;;;;;;17.50;11.13;;;3.50;99.90;;;;;;5093949;28;20028;-75
2022/01/09 08:43:56;;;;;;;16.98;11.43;;;3.50;99.90;;;;;;5093293;28;20115;-75
2022/01/09 08:46:22;;;;;;;20.35;12.23;;;3.60;99.90;;;;;;5095287;28;20510;-74
2022/01/09 08:48:49;;;;;;;17.15;12.10;;;3.60;99.90;;;;;;5093498;28;20050;-74
2022/01/09 08:51:14;;;;;;;17.17;11.95;;;3.60;99.90;;;;;;5093831;28;20020;-74
2022/01/09 08:53:41;;;;;;;15.32;11.45;;;3.60;99.90;;;;;;5093059;28;20123;-74
2022/01/09 08:56:07;;;;;;;21.70;11.30;;;3.60;99.90;;;;;;5092473;28;20103;-75
2022/01/09 08:58:33;;;;;;;15.75;10.98;;;3.70;99.90;;;;;;5091268;28;20024;-74
2022/01/09 09:00:59;;;;;;;16.98;11.55;;;3.70;99.90;;;;;;5092790;28;20020;-75
2022/01/09 09:03:25;;;;;;;15.82;11.45;;;3.70;99.90;;;;;;5091120;28;20055;-74
2022/01/09 09:05:51;;;;;;;19.90;11.35;;;3.70;99.90;;;;;;5092320;28;20024;-74
2022/01/09 09:08:17;;;;;;;16.10;10.25;;;3.70;99.90;;;;;;5092588;28;20061;-75
2022/01/09 09:10:43;;;;;;;13.48;9.30;;;3.80;99.90;;;;;;5093345;28;20032;-74
2022/01/09 09:13:09;;;;;;;13.43;9.30;;;3.90;99.90;;;;;;5096789;28;20065;-75
2022/01/09 09:15:35;;;;;;;13.43;8.70;;;3.90;99.90;;;;;;5094621;28;20103;-75
2022/01/09 09:18:01;;;;;;;15.82;10.18;;;4.00;99.90;;;;;;5094564;28;20020;-72
2022/01/09 09:20:27;;;;;;;13.45;9.27;;;4.00;99.90;;;;;;5094377;28;20504;-71
2022/01/09 09:22:52;;;;;;;14.75;9.93;;;4.00;99.90;;;;;;5092777;28;20024;-73
2022/01/09 09:25:18;;;;;;;16.23;8.85;;;4.10;99.90;;;;;;5091810;28;20481;-76
2022/01/09 09:27:45;;;;;;;12.43;9.48;;;4.10;99.90;;;;;;5092479;28;20028;-72
2022/01/09 09:30:14;;;;;;;13.90;9.43;;;4.20;99.90;;;;;;5092695;28;20104;-76
2022/01/09 09:32:40;;;;;;;12.93;9.07;;;4.20;99.90;;;;;;5091682;28;20020;-74
2022/01/09 09:35:06;;;;;;;12.93;8.43;;;4.20;99.90;;;;;;5092559;28;20100;-76
2022/01/09 09:37:32;;;;;;;16.40;8.88;;;4.20;99.90;;;;;;5091145;28;20474;-76
2022/01/09 09:39:57;;;;;;;13.43;9.10;;;4.20;99.90;;;;;;5094548;28;20032;-76
2022/01/09 09:42:23;;;;;;;18.58;10.07;;;4.20;99.90;;;;;;5097078;28;20081;-76
2022/01/09 09:44:48;;;;;;;11.73;8.35;;;4.20;99.90;;;;;;5096575;28;20439;-74
2022/01/09 09:47:21;;;;;;;12.30;8.95;;;4.20;99.90;;;;;;5096262;28;20024;-76
2022/01/09 09:49:48;;;;;;;13.40;9.45;;;4.20;99.90;;;;;;5095423;28;20067;-73
2022/01/09 09:52:17;;;;;;;15.68;9.02;;;4.20;99.90;;;;;;5096380;28;20556;-74
2022/01/09 09:54:43;;;;;;;16.45;9.50;;;4.30;99.90;;;;;;5096111;28;20069;-76
2022/01/09 09:57:09;;;;;;;14.00;9.05;;;4.30;99.90;;;;;;5095852;28;20056;-75
2022/01/09 09:59:36;;;;;;;15.80;9.30;;;4.30;99.90;;;;;;5095855;28;20048;-74
2022/01/09 10:02:09;;;;;;;13.90;9.98;;;4.30;99.90;;;;;;5094593;28;20028;-74
2022/01/09 10:04:34;;;;;;;12.23;9.10;;;4.40;99.90;;;;;;5095485;28;20024;-75
2022/01/09 10:07:00;;;;;;;17.13;9.52;;;4.40;99.90;;;;;;5095423;28;20031;-74
2022/01/09 10:09:25;;;;;;;13.75;9.55;;;4.40;99.90;;;;;;5099025;28;20024;-73
2022/01/09 10:12:00;;;;;;;16.05;8.70;;;4.40;99.90;;;;;;5096997;28;20442;-73
2022/01/09 10:14:33;;;;;;;14.00;9.57;;;4.50;99.90;;;;;;5097034;28;20091;-74
2022/01/09 10:17:05;;;;;;;12.75;8.70;;;4.50;99.90;;;;;;5095822;28;20124;-73
2022/01/09 10:19:43;;;;;;;13.18;8.77;;;4.50;99.90;;;;;;5099171;28;20020;-74
2022/01/09 10:22:46;;;;;;;13.27;9.27;;;4.50;99.90;;;;;;5097434;28;20024;-74
2022/01/09 10:25:26;;;;;;;13.73;8.55;;;4.50;99.90;;;;;;5064764;28;20032;-76
2022/01/09 10:28:12;;;;;;;13.45;8.13;;;4.50;99.90;;;;;;5097169;28;20026;-75
2022/01/09 10:30:43;;;;;;;11.93;8.40;;;4.60;99.90;;;;;;5096915;28;20456;-74
2022/01/09 10:33:12;;;;;;;12.35;8.20;;;4.50;99.90;;;;;;5093947;28;20024;-74
2022/01/09 10:35:40;;;;;;;14.50;9.45;;;4.60;99.90;;;;;;5094714;28;20020;-75
2022/01/09 10:38:12;;;;;;;11.13;8.65;;;4.50;99.90;;;;;;5093481;28;20024;-73
2022/01/09 10:40:40;;;;;;;14.02;7.85;;;4.60;99.90;;;;;;5103997;22;20048;-76
2022/01/09 10:43:10;;;;;;;14.00;8.07;;;4.60;99.90;;;;;;5075083;28;20404;-75
2022/01/09 10:45:41;;;;;;;13.48;8.18;;;4.60;99.90;;;;;;5076355;28;20025;-75
2022/01/09 10:48:16;;;;;;;15.98;9.40;;;4.60;99.90;;;;;;5078515;28;20017;-75
2022/01/09 10:50:43;;;;;;;12.63;8.52;;;4.60;99.90;;;;;;5083279;28;20507;-76
2022/01/09 10:53:21;;;;;;;9.88;7.88;;;4.60;99.90;;;;;;5086193;28;20362;-76
2022/01/09 10:56:08;;;;;;;9.63;7.82;;;4.60;99.90;;;;;;5074820;28;20115;-77
2022/01/09 10:58:38;;;;;;;11.52;7.93;;;4.70;99.90;;;;;;5076443;28;20024;-77
2022/01/09 11:01:26;;;;;;;10.45;7.78;;;4.70;99.90;;;;;;5089611;28;20020;-76
2022/01/09 11:04:07;;;;;;;13.15;9.02;;;4.60;99.90;;;;;;5097358;28;20103;-77
2022/01/09 11:06:38;;;;;;;11.40;7.60;;;4.60;99.90;;;;;;5075083;28;20016;-77
2022/01/09 11:09:05;;;;;;;10.75;7.22;;;4.60;99.90;;;;;;5075311;28;20376;-77
2022/01/09 11:11:36;;;;;;;10.05;7.60;;;4.70;99.90;;;;;;5075488;28;20094;-77
2022/01/09 11:14:05;;;;;;;11.18;8.05;;;4.70;99.90;;;;;;5075564;28;20020;-79
2022/01/09 11:16:33;;;;;;;12.13;8.65;;;4.70;99.90;;;;;;5079667;28;20024;-75
2022/01/09 11:19:01;;;;;;;16.00;9.70;;;4.80;99.90;;;;;;5074962;28;20036;-76
2022/01/09 11:21:27;;;;;;;11.93;7.70;;;4.80;99.90;;;;;;5074025;28;20112;-77
2022/01/09 11:24:27;;;;;;;12.15;8.02;;;4.80;99.90;;;;;;5074271;28;20048;-77
2022/01/09 11:27:01;;;;;;;10.45;7.22;;;4.90;99.90;;;;;;5073215;28;20066;-77
2022/01/09 11:29:38;;;;;;;12.23;8.45;;;4.90;99.90;;;;;;5073859;28;20024;-77
2022/01/09 11:32:38;;;;;;;14.75;9.32;;;4.90;99.90;;;;;;5073086;28;20308;-76
2022/01/09 11:35:33;;;;;;;11.27;7.80;;;4.90;99.90;;;;;;5074689;28;20021;-77
2022/01/09 11:38:12;;;;;;;15.02;9.35;;;4.90;99.90;;;;;;5088452;28;20044;-75
2022/01/09 11:40:38;;;;;;;15.98;8.57;;;4.90;99.90;;;;;;5095525;28;20025;-77
2022/01/09 11:43:11;;;;;;;14.55;8.13;;;4.90;99.90;;;;;;5074068;28;20027;-76
2022/01/09 11:45:51;;;;;;;15.63;8.45;;;4.90;99.90;;;;;;5073890;28;20021;-76
2022/01/09 11:48:19;;;;;;;14.07;8.57;;;4.90;99.90;;;;;;5072759;28;20024;-77
2022/01/09 11:51:06;;;;;;;12.07;8.23;;;5.00;99.90;;;;;;5071406;28;20104;-77
2022/01/09 11:53:57;;;;;;;13.40;8.95;;;5.00;99.90;;;;;;5071037;28;20017;-76
2022/01/09 11:56:41;;;;;;;14.00;9.35;;;5.00;99.90;;;;;;5071690;28;20560;-76
2022/01/09 11:59:37;;;;;;;13.33;8.83;;;5.10;99.90;;;;;;5072668;28;20507;-76
2022/01/09 12:02:27;;;;;;;16.77;9.68;;;5.20;99.90;;;;;;5070640;28;20021;-76
2022/01/09 12:04:55;;;;;;;11.40;7.85;;;5.30;99.90;;;;;;5072451;28;20111;-75
2022/01/09 12:07:36;;;;;;;9.40;7.43;;;5.40;99.90;;;;;;5077127;28;20043;-76
2022/01/09 12:10:32;;;;;;;14.80;8.85;;;5.40;99.90;;;;;;5073408;28;20025;-76
2022/01/09 12:12:58;;;;;;;12.13;8.63;;;5.40;99.90;;;;;;5071876;28;20044;-77
2022/01/09 12:15:38;;;;;;;11.90;8.32;;;5.50;99.90;;;;;;5073507;28;20020;-76
2022/01/09 12:18:06;;;;;;;12.50;8.45;;;5.50;99.90;;;;;;5074036;28;20027;-76
2022/01/09 12:20:37;;;;;;;13.95;8.43;;;5.60;99.90;;;;;;5074378;28;20469;-76
2022/01/09 12:23:07;;;;;;;15.30;8.13;;;5.60;99.90;;;;;;5073549;28;20016;-76
2022/01/09 12:25:36;;;;;;;14.57;8.45;;;5.70;99.90;;;;;;5072295;28;20511;-76
2022/01/09 12:28:18;;;;;;;10.63;8.10;;;5.70;99.90;;;;;;5073879;28;20032;-76
2022/01/09 12:30:54;;;;;;;20.83;11.75;;;5.70;99.90;;;;;;5068471;28;20107;-76
2022/01/09 12:33:27;;;;;;;29.63;18.05;;;5.80;99.90;;;;;;5072422;28;20017;-77
2022/01/09 12:35:57;;;;;;;12.63;7.88;;;5.80;99.90;;;;;;5074495;28;20477;-76
2022/01/09 12:38:26;;;;;;;12.40;7.72;;;5.80;99.90;;;;;;5076341;28;20017;-77
2022/01/09 12:40:59;;;;;;;13.25;7.45;;;5.80;99.90;;;;;;5078647;28;20038;-75
2022/01/09 12:43:26;;;;;;;10.75;7.82;;;5.90;99.90;;;;;;5079815;28;20088;-76
2022/01/09 12:45:52;;;;;;;13.68;7.82;;;5.90;99.90;;;;;;5072954;28;20028;-76
2022/01/09 12:48:21;;;;;;;21.55;9.82;;;5.90;99.90;;;;;;5072781;28;20556;-76
2022/01/09 12:50:48;;;;;;;15.10;8.88;;;5.90;99.90;;;;;;5077325;28;20085;-76
2022/01/09 12:53:23;;;;;;;13.60;8.88;;;6.00;99.90;;;;;;5073010;28;20033;-76